sensor_id;sensor_type;location;lat;lon;timestamp;pressure;altitude;pressure_sealevel;temperature;humidity
6668;BME280;3370;47.712;9.082;2024-03-22T00:02:40;97793.78;;;8.60;94.85
6668;BME280;3370;47.712;9.082;2024-03-22T00:05:26;97801.53;;;8.57;95.76
6668;BME280;3370;47.712;9.082;2024-03-22T00:08:13;97796.38;;;8.59;96.34
6668;BME280;3370;47.712;9.082;2024-03-22T00:10:59;97794.66;;;8.59;96.08
6668;BME280;3370;47.712;9.082;2024-03-22T00:13:45;97792.81;;;8.64;95.37
6668;BME280;3370;47.712;9.082;2024-03-22T00:16:31;97782.34;;;8.74;94.57
6668;BME280;3370;47.712;9.082;2024-03-22T00:19:17;97784.72;;;8.80;93.95
6668;BME280;3370;47.712;9.082;2024-03-22T00:22:03;97776.88;;;8.86;93.28
6668;BME280;3370;47.712;9.082;2024-03-22T00:24:49;97773.22;;;8.95;92.50
6668;BME280;3370;47.712;9.082;2024-03-22T00:27:35;97772.25;;;8.99;90.44
6668;BME280;3370;47.712;9.082;2024-03-22T00:30:21;97784.25;;;8.66;92.48
6668;BME280;3370;47.712;9.082;2024-03-22T00:33:07;97784.72;;;8.47;94.73
6668;BME280;3370;47.712;9.082;2024-03-22T00:35:53;97780.41;;;8.48;95.73
6668;BME280;3370;47.712;9.082;2024-03-22T00:38:39;97784.69;;;8.49;95.86
6668;BME280;3370;47.712;9.082;2024-03-22T00:41:25;97770.13;;;8.49;95.39
6668;BME280;3370;47.712;9.082;2024-03-22T00:44:11;97764.31;;;8.41;95.02
6668;BME280;3370;47.712;9.082;2024-03-22T00:46:57;97770.06;;;8.52;94.63
6668;BME280;3370;47.712;9.082;2024-03-22T00:49:44;97761.28;;;8.61;93.58
6668;BME280;3370;47.712;9.082;2024-03-22T00:52:30;97754.59;;;8.55;93.60
6668;BME280;3370;47.712;9.082;2024-03-22T00:55:16;97757.16;;;8.55;93.20
6668;BME280;3370;47.712;9.082;2024-03-22T00:58:02;97744.03;;;8.32;94.14
6668;BME280;3370;47.712;9.082;2024-03-22T01:00:48;97747.97;;;8.12;96.25
6668;BME280;3370;47.712;9.082;2024-03-22T01:03:34;97743.84;;;8.05;96.19
6668;BME280;3370;47.712;9.082;2024-03-22T01:06:20;97754.13;;;8.03;96.21
6668;BME280;3370;47.712;9.082;2024-03-22T01:09:10;97745.81;;;8.30;92.71
6668;BME280;3370;47.712;9.082;2024-03-22T01:11:57;97743.03;;;8.03;94.47
6668;BME280;3370;47.712;9.082;2024-03-22T01:14:43;97743.81;;;7.69;97.78
6668;BME280;3370;47.712;9.082;2024-03-22T01:17:29;97745.84;;;7.55;99.12
6668;BME280;3370;47.712;9.082;2024-03-22T01:20:15;97745.09;;;7.49;99.62
6668;BME280;3370;47.712;9.082;2024-03-22T01:23:01;97744.16;;;7.54;99.76
6668;BME280;3370;47.712;9.082;2024-03-22T01:25:47;97735.72;;;7.48;100.00
6668;BME280;3370;47.712;9.082;2024-03-22T01:28:33;97739.38;;;7.38;100.00
6668;BME280;3370;47.712;9.082;2024-03-22T01:31:19;97735.94;;;7.38;100.00
6668;BME280;3370;47.712;9.082;2024-03-22T01:34:06;97736.91;;;7.32;100.00
6668;BME280;3370;47.712;9.082;2024-03-22T01:36:52;97736.13;;;7.30;100.00
6668;BME280;3370;47.712;9.082;2024-03-22T01:39:38;97736.34;;;7.19;100.00
6668;BME280;3370;47.712;9.082;2024-03-22T01:42:24;97735.44;;;7.22;100.00
6668;BME280;3370;47.712;9.082;2024-03-22T01:45:11;97732.66;;;7.33;99.68
6668;BME280;3370;47.712;9.082;2024-03-22T01:47:59;97726.91;;;7.21;100.00
6668;BME280;3370;47.712;9.082;2024-03-22T01:50:46;97732.22;;;7.12;100.00
6668;BME280;3370;47.712;9.082;2024-03-22T01:53:34;97721.28;;;7.05;100.00
6668;BME280;3370;47.712;9.082;2024-03-22T01:56:21;97720.25;;;7.14;100.00
6668;BME280;3370;47.712;9.082;2024-03-22T01:59:07;97717.78;;;7.09;100.00
6668;BME280;3370;47.712;9.082;2024-03-22T02:01:54;97722.78;;;7.16;100.00
6668;BME280;3370;47.712;9.082;2024-03-22T02:04:40;97714.28;;;7.14;99.86
6668;BME280;3370;47.712;9.082;2024-03-22T02:07:30;97718.75;;;7.05;100.00
6668;BME280;3370;47.712;9.082;2024-03-22T02:10:16;97718.63;;;7.10;100.00
6668;BME280;3370;47.712;9.082;2024-03-22T02:13:03;97710.28;;;7.02;100.00
6668;BME280;3370;47.712;9.082;2024-03-22T02:15:49;97702.63;;;7.00;100.00
6668;BME280;3370;47.712;9.082;2024-03-22T02:18:35;97700.94;;;6.99;100.00
6668;BME280;3370;47.712;9.082;2024-03-22T02:21:22;97696.34;;;7.15;100.00
6668;BME280;3370;47.712;9.082;2024-03-22T02:24:08;97692.81;;;7.22;100.00
6668;BME280;3370;47.712;9.082;2024-03-22T02:26:54;97693.97;;;7.07;100.00
6668;BME280;3370;47.712;9.082;2024-03-22T02:29:40;97690.53;;;7.08;100.00
6668;BME280;3370;47.712;9.082;2024-03-22T02:32:26;97688.94;;;7.03;100.00
6668;BME280;3370;47.712;9.082;2024-03-22T02:35:12;97688.28;;;6.93;100.00
6668;BME280;3370;47.712;9.082;2024-03-22T02:37:58;97687.41;;;6.94;100.00
6668;BME280;3370;47.712;9.082;2024-03-22T02:40:45;97684.13;;;6.89;100.00
6668;BME280;3370;47.712;9.082;2024-03-22T02:43:32;97674.91;;;6.80;100.00
6668;BME280;3370;47.712;9.082;2024-03-22T02:46:18;97673.94;;;6.86;100.00
6668;BME280;3370;47.712;9.082;2024-03-22T02:49:04;97679.13;;;6.83;100.00
6668;BME280;3370;47.712;9.082;2024-03-22T02:51:50;97667.22;;;6.82;100.00
6668;BME280;3370;47.712;9.082;2024-03-22T02:54:36;97665.38;;;6.87;100.00
6668;BME280;3370;47.712;9.082;2024-03-22T02:57:22;97664.72;;;6.79;100.00
6668;BME280;3370;47.712;9.082;2024-03-22T03:00:08;97660.59;;;6.71;100.00
6668;BME280;3370;47.712;9.082;2024-03-22T03:02:55;97657.25;;;6.69;100.00
6668;BME280;3370;47.712;9.082;2024-03-22T03:05:42;97660.59;;;6.71;100.00
6668;BME280;3370;47.712;9.082;2024-03-22T03:08:28;97657.84;;;6.82;100.00
6668;BME280;3370;47.712;9.082;2024-03-22T03:11:14;97663.53;;;6.95;100.00
6668;BME280;3370;47.712;9.082;2024-03-22T03:14:00;97665.28;;;6.93;100.00
6668;BME280;3370;47.712;9.082;2024-03-22T03:16:47;97666.25;;;6.87;100.00
6668;BME280;3370;47.712;9.082;2024-03-22T03:19:33;97666.38;;;6.81;100.00
6668;BME280;3370;47.712;9.082;2024-03-22T03:22:19;97654.66;;;6.71;100.00
6668;BME280;3370;47.712;9.082;2024-03-22T03:25:06;97656.22;;;6.78;100.00
6668;BME280;3370;47.712;9.082;2024-03-22T03:27:52;97653.00;;;6.67;100.00
6668;BME280;3370;47.712;9.082;2024-03-22T03:30:39;97653.16;;;6.61;100.00
6668;BME280;3370;47.712;9.082;2024-03-22T03:33:25;97648.97;;;6.57;100.00
6668;BME280;3370;47.712;9.082;2024-03-22T03:36:11;97655.69;;;6.62;100.00
6668;BME280;3370;47.712;9.082;2024-03-22T03:38:57;97639.59;;;6.57;100.00
6668;BME280;3370;47.712;9.082;2024-03-22T03:41:43;97642.19;;;6.54;100.00
6668;BME280;3370;47.712;9.082;2024-03-22T03:44:29;97643.13;;;6.50;100.00
6668;BME280;3370;47.712;9.082;2024-03-22T03:47:15;97642.38;;;6.45;100.00
6668;BME280;3370;47.712;9.082;2024-03-22T03:50:01;97635.63;;;6.42;100.00
6668;BME280;3370;47.712;9.082;2024-03-22T03:52:48;97635.66;;;6.41;100.00
6668;BME280;3370;47.712;9.082;2024-03-22T03:55:34;97635.69;;;6.38;100.00
6668;BME280;3370;47.712;9.082;2024-03-22T03:58:20;97628.91;;;6.37;100.00
6668;BME280;3370;47.712;9.082;2024-03-22T04:01:08;97623.84;;;6.33;100.00
6668;BME280;3370;47.712;9.082;2024-03-22T04:03:54;97627.22;;;6.36;100.00
6668;BME280;3370;47.712;9.082;2024-03-22T04:06:40;97622.13;;;6.34;100.00
6668;BME280;3370;47.712;9.082;2024-03-22T04:09:26;97617.00;;;6.36;100.00
6668;BME280;3370;47.712;9.082;2024-03-22T04:12:12;97617.00;;;6.36;100.00
6668;BME280;3370;47.712;9.082;2024-03-22T04:14:59;97612.63;;;6.42;100.00
6668;BME280;3370;47.712;9.082;2024-03-22T04:17:45;97615.22;;;6.39;100.00
6668;BME280;3370;47.712;9.082;2024-03-22T04:20:31;97614.59;;;6.28;100.00
6668;BME280;3370;47.712;9.082;2024-03-22T04:23:17;97606.03;;;6.30;100.00
6668;BME280;3370;47.712;9.082;2024-03-22T04:26:03;97607.81;;;6.25;100.00
6668;BME280;3370;47.712;9.082;2024-03-22T04:28:50;97601.91;;;6.23;100.00
6668;BME280;3370;47.712;9.082;2024-03-22T04:31:36;97603.69;;;6.18;100.00
6668;BME280;3370;47.712;9.082;2024-03-22T04:34:22;97605.41;;;6.18;100.00
6668;BME280;3370;47.712;9.082;2024-03-22T04:37:08;97603.69;;;6.18;100.00
6668;BME280;3370;47.712;9.082;2024-03-22T04:39:54;97610.09;;;6.41;100.00
6668;BME280;3370;47.712;9.082;2024-03-22T04:42:41;97613.47;;;6.43;100.00
6668;BME280;3370;47.712;9.082;2024-03-22T04:45:27;97617.13;;;6.29;100.00
6668;BME280;3370;47.712;9.082;2024-03-22T04:48:16;97619.66;;;6.31;100.00
6668;BME280;3370;47.712;9.082;2024-03-22T04:51:02;97615.41;;;6.30;100.00
6668;BME280;3370;47.712;9.082;2024-03-22T04:53:51;97607.78;;;6.28;100.00
6668;BME280;3370;47.712;9.082;2024-03-22T04:56:39;97605.03;;;6.38;100.00
6668;BME280;3370;47.712;9.082;2024-03-22T04:59:25;97597.34;;;6.39;100.00
6668;BME280;3370;47.712;9.082;2024-03-22T05:02:11;97601.97;;;6.64;100.00
6668;BME280;3370;47.712;9.082;2024-03-22T05:04:57;97602.03;;;6.61;100.00
6668;BME280;3370;47.712;9.082;2024-03-22T05:07:43;97601.25;;;6.57;100.00
6668;BME280;3370;47.712;9.082;2024-03-22T05:10:30;97591.09;;;6.54;100.00
6668;BME280;3370;47.712;9.082;2024-03-22T05:13:16;97589.34;;;6.56;100.00
6668;BME280;3370;47.712;9.082;2024-03-22T05:16:02;97586.75;;;6.58;100.00
6668;BME280;3370;47.712;9.082;2024-03-22T05:18:48;97586.06;;;6.51;100.00
6668;BME280;3370;47.712;9.082;2024-03-22T05:21:34;97591.22;;;6.48;100.00
6668;BME280;3370;47.712;9.082;2024-03-22T05:24:21;97592.84;;;6.52;100.00
6668;BME280;3370;47.712;9.082;2024-03-22T05:27:07;97585.97;;;6.54;100.00
6668;BME280;3370;47.712;9.082;2024-03-22T05:29:53;97586.84;;;6.55;100.00
6668;BME280;3370;47.712;9.082;2024-03-22T05:32:42;97579.00;;;6.62;100.00
6668;BME280;3370;47.712;9.082;2024-03-22T05:35:28;97582.31;;;6.67;100.00
6668;BME280;3370;47.712;9.082;2024-03-22T05:38:14;97581.41;;;6.70;100.00
6668;BME280;3370;47.712;9.082;2024-03-22T05:41:04;97587.34;;;6.70;100.00
6668;BME280;3370;47.712;9.082;2024-03-22T05:43:50;97587.81;;;6.89;100.00
6668;BME280;3370;47.712;9.082;2024-03-22T05:46:36;97584.38;;;6.90;100.00
6668;BME280;3370;47.712;9.082;2024-03-22T05:49:22;97581.22;;;6.78;100.00
6668;BME280;3370;47.712;9.082;2024-03-22T05:52:08;97588.84;;;6.81;100.00
6668;BME280;3370;47.712;9.082;2024-03-22T05:54:54;97578.59;;;6.82;100.00
6668;BME280;3370;47.712;9.082;2024-03-22T05:57:41;97583.44;;;6.95;100.00
6668;BME280;3370;47.712;9.082;2024-03-22T06:00:27;97584.00;;;7.07;100.00
6668;BME280;3370;47.712;9.082;2024-03-22T06:03:13;97588.06;;;7.16;100.00
6668;BME280;3370;47.712;9.082;2024-03-22T06:06:00;97588.00;;;7.19;100.00
6668;BME280;3370;47.712;9.082;2024-03-22T06:08:46;97570.78;;;7.26;100.00
6668;BME280;3370;47.712;9.082;2024-03-22T06:11:38;97580.09;;;7.28;100.00
6668;BME280;3370;47.712;9.082;2024-03-22T06:14:24;97585.94;;;7.34;100.00
6668;BME280;3370;47.712;9.082;2024-03-22T06:17:11;97583.28;;;7.40;100.00
6668;BME280;3370;47.712;9.082;2024-03-22T06:19:57;97575.47;;;7.44;100.00
6668;BME280;3370;47.712;9.082;2024-03-22T06:22:43;97577.75;;;7.55;100.00
6668;BME280;3370;47.712;9.082;2024-03-22T06:25:29;97578.47;;;7.62;100.00
6668;BME280;3370;47.712;9.082;2024-03-22T06:28:15;97571.59;;;7.64;100.00
6668;BME280;3370;47.712;9.082;2024-03-22T06:31:01;97574.56;;;7.81;100.00
6668;BME280;3370;47.712;9.082;2024-03-22T06:33:47;97563.28;;;7.89;100.00
6668;BME280;3370;47.712;9.082;2024-03-22T06:36:33;97561.31;;;7.98;100.00
6668;BME280;3370;47.712;9.082;2024-03-22T06:39:19;97553.84;;;7.91;100.00
6668;BME280;3370;47.712;9.082;2024-03-22T06:42:05;97560.63;;;7.92;100.00
6668;BME280;3370;47.712;9.082;2024-03-22T06:44:51;97565.69;;;7.95;100.00
6668;BME280;3370;47.712;9.082;2024-03-22T06:47:37;97563.13;;;7.95;100.00
6668;BME280;3370;47.712;9.082;2024-03-22T06:50:23;97565.50;;;8.01;100.00
6668;BME280;3370;47.712;9.082;2024-03-22T06:53:11;97562.97;;;7.99;100.00
6668;BME280;3370;47.712;9.082;2024-03-22T06:55:57;97557.94;;;7.98;100.00
6668;BME280;3370;47.712;9.082;2024-03-22T06:58:44;97562.00;;;8.05;100.00
6668;BME280;3370;47.712;9.082;2024-03-22T07:01:30;97560.38;;;8.01;100.00
6668;BME280;3370;47.712;9.082;2024-03-22T07:04:16;97558.47;;;8.09;100.00
6668;BME280;3370;47.712;9.082;2024-03-22T07:07:02;97559.56;;;8.00;100.00
6668;BME280;3370;47.712;9.082;2024-03-22T07:09:48;97556.19;;;7.98;100.00
6668;BME280;3370;47.712;9.082;2024-03-22T07:12:34;97558.00;;;7.95;100.00
6668;BME280;3370;47.712;9.082;2024-03-22T07:15:22;97560.34;;;8.02;100.00
6668;BME280;3370;47.712;9.082;2024-03-22T07:18:09;97563.66;;;8.06;100.00
6668;BME280;3370;47.712;9.082;2024-03-22T07:20:55;97552.38;;;8.13;100.00
6668;BME280;3370;47.712;9.082;2024-03-22T07:23:42;97544.59;;;8.18;100.00
6668;BME280;3370;47.712;9.082;2024-03-22T07:26:28;97549.50;;;8.25;100.00
6668;BME280;3370;47.712;9.082;2024-03-22T07:29:14;97547.72;;;8.28;100.00
6668;BME280;3370;47.712;9.082;2024-03-22T07:32:00;97546.03;;;8.26;100.00
6668;BME280;3370;47.712;9.082;2024-03-22T07:34:46;97554.47;;;8.30;100.00
6668;BME280;3370;47.712;9.082;2024-03-22T07:37:33;97548.44;;;8.33;100.00
6668;BME280;3370;47.712;9.082;2024-03-22T07:42:49;97548.47;;;8.31;100.00
6668;BME280;3370;47.712;9.082;2024-03-22T07:45:36;97554.31;;;8.36;100.00
6668;BME280;3370;47.712;9.082;2024-03-22T07:48:23;97552.28;;;8.49;100.00
6668;BME280;3370;47.712;9.082;2024-03-22T07:51:09;97550.31;;;8.57;100.00
6668;BME280;3370;47.712;9.082;2024-03-22T07:53:55;97545.78;;;8.67;100.00
6668;BME280;3370;47.712;9.082;2024-03-22T07:56:41;97551.97;;;8.88;100.00
6668;BME280;3370;47.712;9.082;2024-03-22T07:59:28;97540.47;;;9.01;100.00
6668;BME280;3370;47.712;9.082;2024-03-22T08:02:14;97545.09;;;9.17;100.00
6668;BME280;3370;47.712;9.082;2024-03-22T08:05:00;97550.06;;;9.23;100.00
6668;BME280;3370;47.712;9.082;2024-03-22T08:07:47;97537.94;;;9.28;100.00
6668;BME280;3370;47.712;9.082;2024-03-22T08:10:33;97537.72;;;9.34;100.00
6668;BME280;3370;47.712;9.082;2024-03-22T08:13:19;97537.63;;;9.37;100.00
6668;BME280;3370;47.712;9.082;2024-03-22T08:16:05;97539.38;;;9.35;100.00
6668;BME280;3370;47.712;9.082;2024-03-22T08:18:51;97535.38;;;9.28;100.00
6668;BME280;3370;47.712;9.082;2024-03-22T08:21:37;97527.38;;;9.37;100.00
6668;BME280;3370;47.712;9.082;2024-03-22T08:24:25;97509.19;;;9.44;100.00
6668;BME280;3370;47.712;9.082;2024-03-22T08:27:11;97508.91;;;9.51;100.00
6668;BME280;3370;47.712;9.082;2024-03-22T08:29:57;97514.41;;;9.40;100.00
6668;BME280;3370;47.712;9.082;2024-03-22T08:32:43;97514.47;;;9.64;100.00
6668;BME280;3370;47.712;9.082;2024-03-22T08:35:29;97517.75;;;9.69;100.00
6668;BME280;3370;47.712;9.082;2024-03-22T08:38:15;97514.38;;;9.92;100.00
6668;BME280;3370;47.712;9.082;2024-03-22T08:41:02;97508.78;;;10.06;99.13
6668;BME280;3370;47.712;9.082;2024-03-22T08:43:49;97512.91;;;10.10;98.50
6668;BME280;3370;47.712;9.082;2024-03-22T08:46:35;97510.31;;;10.10;98.63
6668;BME280;3370;47.712;9.082;2024-03-22T08:49:21;97515.13;;;10.20;96.82
6668;BME280;3370;47.712;9.082;2024-03-22T08:52:09;97506.16;;;10.31;94.68
6668;BME280;3370;47.712;9.082;2024-03-22T08:54:55;97505.53;;;10.25;93.92
6668;BME280;3370;47.712;9.082;2024-03-22T08:57:41;97500.69;;;10.17;97.87
6668;BME280;3370;47.712;9.082;2024-03-22T09:00:28;97503.09;;;10.45;100.00
6668;BME280;3370;47.712;9.082;2024-03-22T09:03:14;97498.22;;;10.61;100.00
6668;BME280;3370;47.712;9.082;2024-03-22T09:06:01;97483.66;;;10.82;98.74
6668;BME280;3370;47.712;9.082;2024-03-22T09:08:48;97489.41;;;11.11;93.68
6668;BME280;3370;47.712;9.082;2024-03-22T09:11:34;97481.63;;;11.12;93.87
6668;BME280;3370;47.712;9.082;2024-03-22T09:14:20;97483.00;;;11.21;89.95
6668;BME280;3370;47.712;9.082;2024-03-22T09:17:06;97475.22;;;11.23;86.25
6668;BME280;3370;47.712;9.082;2024-03-22T09:19:53;97467.44;;;11.24;84.34
6668;BME280;3370;47.712;9.082;2024-03-22T09:22:39;97460.59;;;11.44;87.83
6668;BME280;3370;47.712;9.082;2024-03-22T09:25:25;97467.81;;;11.56;87.93
6668;BME280;3370;47.712;9.082;2024-03-22T09:28:11;97462.50;;;11.80;87.24
6668;BME280;3370;47.712;9.082;2024-03-22T09:30:57;97453.53;;;11.90;82.93
6668;BME280;3370;47.712;9.082;2024-03-22T09:33:43;97448.19;;;12.14;86.64
6668;BME280;3370;47.712;9.082;2024-03-22T09:36:29;97452.78;;;12.45;82.45
6668;BME280;3370;47.712;9.082;2024-03-22T09:39:20;97449.56;;;12.59;82.34
6668;BME280;3370;47.712;9.082;2024-03-22T09:42:06;97445.84;;;13.01;80.70
6668;BME280;3370;47.712;9.082;2024-03-22T09:44:54;97434.78;;;13.16;81.47
6668;BME280;3370;47.712;9.082;2024-03-22T09:47:40;97441.38;;;13.22;80.47
6668;BME280;3370;47.712;9.082;2024-03-22T09:50:26;97434.59;;;13.19;76.62
6668;BME280;3370;47.712;9.082;2024-03-22T09:53:14;97435.38;;;13.21;74.80
6668;BME280;3370;47.712;9.082;2024-03-22T09:56:04;97437.53;;;13.31;75.51
6668;BME280;3370;47.712;9.082;2024-03-22T09:58:50;97430.38;;;13.36;74.26
6668;BME280;3370;47.712;9.082;2024-03-22T10:01:36;97423.56;;;13.35;72.46
6668;BME280;3370;47.712;9.082;2024-03-22T10:04:24;97417.13;;;13.59;74.34
6668;BME280;3370;47.712;9.082;2024-03-22T10:07:10;97402.31;;;13.63;74.32
6668;BME280;3370;47.712;9.082;2024-03-22T10:10:00;97410.91;;;13.64;71.86
6668;BME280;3370;47.712;9.082;2024-03-22T10:12:46;97400.28;;;13.52;72.76
6668;BME280;3370;47.712;9.082;2024-03-22T10:15:32;97397.59;;;13.38;72.02
6668;BME280;3370;47.712;9.082;2024-03-22T10:18:19;97391.00;;;13.66;76.13
6668;BME280;3370;47.712;9.082;2024-03-22T10:21:05;97387.00;;;13.76;73.29
6668;BME280;3370;47.712;9.082;2024-03-22T10:23:53;97385.34;;;13.75;71.51
6668;BME280;3370;47.712;9.082;2024-03-22T10:26:39;97386.13;;;13.59;71.26
6668;BME280;3370;47.712;9.082;2024-03-22T10:29:26;97383.84;;;13.71;70.25
6668;BME280;3370;47.712;9.082;2024-03-22T10:32:12;97377.59;;;14.07;71.11
6668;BME280;3370;47.712;9.082;2024-03-22T10:34:58;97375.28;;;14.34;69.67
6668;BME280;3370;47.712;9.082;2024-03-22T10:37:45;97369.50;;;14.76;70.37
6668;BME280;3370;47.712;9.082;2024-03-22T10:40:31;97362.81;;;14.88;67.08
6668;BME280;3370;47.712;9.082;2024-03-22T10:43:17;97359.00;;;14.64;66.10
6668;BME280;3370;47.712;9.082;2024-03-22T10:46:05;97355.13;;;14.87;67.02
6668;BME280;3370;47.712;9.082;2024-03-22T10:48:52;97358.50;;;15.18;65.33
6668;BME280;3370;47.712;9.082;2024-03-22T10:51:40;97358.84;;;15.11;61.77
6668;BME280;3370;47.712;9.082;2024-03-22T10:54:31;97349.91;;;15.46;62.72
6668;BME280;3370;47.712;9.082;2024-03-22T10:57:19;97347.63;;;15.56;60.46
6668;BME280;3370;47.712;9.082;2024-03-22T11:00:14;97344.28;;;15.82;59.71
6668;BME280;3370;47.712;9.082;2024-03-22T11:03:04;97336.81;;;16.19;59.60
6668;BME280;3370;47.712;9.082;2024-03-22T11:05:55;97333.94;;;16.91;61.39
6668;BME280;3370;47.712;9.082;2024-03-22T11:08:42;97328.88;;;17.02;54.93
6668;BME280;3370;47.712;9.082;2024-03-22T11:11:31;97326.59;;;16.98;55.31
6668;BME280;3370;47.712;9.082;2024-03-22T11:14:19;97326.50;;;17.25;57.05
6668;BME280;3370;47.712;9.082;2024-03-22T11:17:09;97320.75;;;17.46;53.83
6668;BME280;3370;47.712;9.082;2024-03-22T11:19:56;97309.84;;;17.28;52.81
6668;BME280;3370;47.712;9.082;2024-03-22T11:22:43;97303.72;;;17.16;53.62
6668;BME280;3370;47.712;9.082;2024-03-22T11:25:31;97292.44;;;18.41;50.96
6668;BME280;3370;47.712;9.082;2024-03-22T11:28:17;97293.84;;;17.96;48.42
6668;BME280;3370;47.712;9.082;2024-03-22T11:31:04;97285.97;;;18.22;48.13
6668;BME280;3370;47.712;9.082;2024-03-22T11:33:52;97279.47;;;18.87;47.28
6668;BME280;3370;47.712;9.082;2024-03-22T11:36:38;97280.25;;;18.41;47.13
6668;BME280;3370;47.712;9.082;2024-03-22T11:39:24;97269.31;;;18.95;46.37
6668;BME280;3370;47.712;9.082;2024-03-22T11:42:11;97267.19;;;19.01;45.45
6668;BME280;3370;47.712;9.082;2024-03-22T11:44:58;97261.25;;;18.87;45.75
6668;BME280;3370;47.712;9.082;2024-03-22T11:47:48;97259.56;;;18.86;46.17
6668;BME280;3370;47.712;9.082;2024-03-22T11:50:34;97248.06;;;18.89;44.63
6668;BME280;3370;47.712;9.082;2024-03-22T11:53:20;97247.28;;;19.56;44.27
6668;BME280;3370;47.712;9.082;2024-03-22T11:56:08;97244.78;;;19.77;45.39
6668;BME280;3370;47.712;9.082;2024-03-22T11:58:58;97245.66;;;20.84;40.29
6668;BME280;3370;47.712;9.082;2024-03-22T12:01:44;97237.78;;;19.66;41.50
6668;BME280;3370;47.712;9.082;2024-03-22T12:04:31;97229.75;;;19.58;43.11
6668;BME280;3370;47.712;9.082;2024-03-22T12:07:18;97232.59;;;19.55;44.24
6668;BME280;3370;47.712;9.082;2024-03-22T12:10:04;97229.94;;;19.78;42.28
6668;BME280;3370;47.712;9.082;2024-03-22T12:12:50;97214.41;;;19.87;42.25
6668;BME280;3370;47.712;9.082;2024-03-22T12:15:36;97217.13;;;20.51;41.60
6668;BME280;3370;47.712;9.082;2024-03-22T12:18:22;97210.84;;;21.05;40.39
6668;BME280;3370;47.712;9.082;2024-03-22T12:21:08;97203.56;;;22.09;38.41
6668;BME280;3370;47.712;9.082;2024-03-22T12:23:54;97203.28;;;22.22;37.62
6668;BME280;3370;47.712;9.082;2024-03-22T12:26:40;97191.00;;;22.62;35.09
6668;BME280;3370;47.712;9.082;2024-03-22T12:29:26;97193.28;;;21.17;37.96
6668;BME280;3370;47.712;9.082;2024-03-22T12:32:12;97185.75;;;21.74;38.00
6668;BME280;3370;47.712;9.082;2024-03-22T12:34:58;97183.16;;;21.74;38.76
6668;BME280;3370;47.712;9.082;2024-03-22T12:37:45;97182.19;;;22.33;34.37
6668;BME280;3370;47.712;9.082;2024-03-22T12:40:31;97170.47;;;21.69;34.85
6668;BME280;3370;47.712;9.082;2024-03-22T12:43:18;97160.81;;;22.57;37.42
6668;BME280;3370;47.712;9.082;2024-03-22T12:46:04;97157.50;;;23.03;33.43
6668;BME280;3370;47.712;9.082;2024-03-22T12:48:50;97153.19;;;23.11;33.52
6668;BME280;3370;47.712;9.082;2024-03-22T12:51:37;97145.03;;;22.67;34.80
6668;BME280;3370;47.712;9.082;2024-03-22T12:54:23;97143.47;;;22.27;35.04
6668;BME280;3370;47.712;9.082;2024-03-22T12:57:11;97130.78;;;21.54;34.41
6668;BME280;3370;47.712;9.082;2024-03-22T12:59:57;97138.69;;;21.23;35.50
6668;BME280;3370;47.712;9.082;2024-03-22T13:02:47;97131.22;;;20.78;36.60
6668;BME280;3370;47.712;9.082;2024-03-22T13:05:33;97116.78;;;20.74;37.18
6668;BME280;3370;47.712;9.082;2024-03-22T13:08:20;97122.97;;;21.74;34.97
6668;BME280;3370;47.712;9.082;2024-03-22T13:11:06;97121.13;;;21.64;35.22
6668;BME280;3370;47.712;9.082;2024-03-22T13:13:55;97102.41;;;21.98;36.30
6668;BME280;3370;47.712;9.082;2024-03-22T13:16:41;97105.03;;;21.59;35.75
6668;BME280;3370;47.712;9.082;2024-03-22T13:19:27;97101.72;;;21.67;35.72
6668;BME280;3370;47.712;9.082;2024-03-22T13:22:14;97096.56;;;21.27;33.15
6668;BME280;3370;47.712;9.082;2024-03-22T13:25:06;97092.94;;;21.78;33.50
6668;BME280;3370;47.712;9.082;2024-03-22T13:27:53;97082.72;;;21.46;32.34
6668;BME280;3370;47.712;9.082;2024-03-22T13:30:39;97080.19;;;21.34;33.27
6668;BME280;3370;47.712;9.082;2024-03-22T13:33:26;97080.50;;;21.60;32.50
6668;BME280;3370;47.712;9.082;2024-03-22T13:36:12;97072.81;;;21.88;34.51
6668;BME280;3370;47.712;9.082;2024-03-22T13:38:59;97065.09;;;21.48;33.02
6668;BME280;3370;47.712;9.082;2024-03-22T13:41:45;97064.81;;;21.80;33.08
6668;BME280;3370;47.712;9.082;2024-03-22T13:44:34;97049.34;;;21.18;32.74
6668;BME280;3370;47.712;9.082;2024-03-22T13:47:20;97047.31;;;21.41;31.50
6668;BME280;3370;47.712;9.082;2024-03-22T13:50:09;97044.69;;;21.80;32.25
6668;BME280;3370;47.712;9.082;2024-03-22T13:52:55;97034.22;;;21.90;32.10
6668;BME280;3370;47.712;9.082;2024-03-22T13:55:43;97024.59;;;21.52;33.61
6668;BME280;3370;47.712;9.082;2024-03-22T13:58:29;97021.00;;;21.23;35.88
6668;BME280;3370;47.712;9.082;2024-03-22T14:01:15;97020.44;;;21.30;32.77
6668;BME280;3370;47.712;9.082;2024-03-22T14:04:01;97017.44;;;21.44;32.82
6668;BME280;3370;47.712;9.082;2024-03-22T14:06:47;97007.25;;;21.31;34.60
6668;BME280;3370;47.712;9.082;2024-03-22T14:09:36;97011.38;;;21.24;33.91
6668;BME280;3370;47.712;9.082;2024-03-22T14:12:22;96999.25;;;21.33;36.54
6668;BME280;3370;47.712;9.082;2024-03-22T14:15:09;96988.53;;;21.55;33.52
6668;BME280;3370;47.712;9.082;2024-03-22T14:17:55;96991.53;;;21.80;36.00
6668;BME280;3370;47.712;9.082;2024-03-22T14:20:41;96976.94;;;21.68;32.42
6668;BME280;3370;47.712;9.082;2024-03-22T14:23:27;96973.81;;;21.25;35.04
6668;BME280;3370;47.712;9.082;2024-03-22T14:26:18;96965.69;;;21.18;34.40
6668;BME280;3370;47.712;9.082;2024-03-22T14:29:04;96967.84;;;20.74;35.93
6668;BME280;3370;47.712;9.082;2024-03-22T14:31:50;96957.09;;;20.67;35.30
6668;BME280;3370;47.712;9.082;2024-03-22T14:34:36;96956.78;;;20.20;36.64
6668;BME280;3370;47.712;9.082;2024-03-22T14:37:23;96956.22;;;20.17;36.37
6668;BME280;3370;47.712;9.082;2024-03-22T14:40:09;96955.53;;;20.15;35.45
6668;BME280;3370;47.712;9.082;2024-03-22T14:42:56;96947.00;;;20.13;34.72
6668;BME280;3370;47.712;9.082;2024-03-22T14:45:42;96942.78;;;20.72;35.17
6668;BME280;3370;47.712;9.082;2024-03-22T14:48:28;96938.28;;;20.43;34.99
6668;BME280;3370;47.712;9.082;2024-03-22T14:51:14;96940.09;;;20.42;34.71
6668;BME280;3370;47.712;9.082;2024-03-22T14:54:00;96931.34;;;20.13;35.11
6668;BME280;3370;47.712;9.082;2024-03-22T14:56:46;96930.81;;;20.28;34.75
6668;BME280;3370;47.712;9.082;2024-03-22T14:59:32;96932.25;;;20.42;35.97
6668;BME280;3370;47.712;9.082;2024-03-22T15:02:18;96926.59;;;19.97;34.37
6668;BME280;3370;47.712;9.082;2024-03-22T15:05:05;96919.66;;;19.76;34.50
6668;BME280;3370;47.712;9.082;2024-03-22T15:07:51;96921.53;;;19.32;37.04
6668;BME280;3370;47.712;9.082;2024-03-22T15:10:38;96907.66;;;19.73;37.99